createdAt,value
2022-08-02T00:05:34.531Z,16.1
2022-08-02T00:11:14.638Z,16.1
2022-08-02T00:16:55.082Z,16
2022-08-02T00:28:15.250Z,16.2
2022-08-02T00:34:04.623Z,16.1
2022-08-02T00:40:18.711Z,16.3
2022-08-02T00:46:02.913Z,16.4
2022-08-02T00:51:44.549Z,16.5
2022-08-02T00:57:24.703Z,16.5
2022-08-02T01:03:04.965Z,16.5
2022-08-02T01:08:47.059Z,16.6
2022-08-02T01:14:28.416Z,16.7
2022-08-02T01:20:08.838Z,16.7
2022-08-02T01:25:48.799Z,16.7
2022-08-02T01:31:29.132Z,16.6
2022-08-02T01:44:27.210Z,16.9
2022-08-02T01:50:07.768Z,16.5
2022-08-02T01:55:57.242Z,16.3
2022-08-02T02:01:42.377Z,16.2
2022-08-02T02:07:23.556Z,16.2
2022-08-02T02:13:03.871Z,16.4
2022-08-02T02:24:24.185Z,16.3
2022-08-02T02:30:04.478Z,16
2022-08-02T02:41:24.929Z,15.7
2022-08-02T02:47:05.491Z,15.5
2022-08-02T02:52:46.082Z,15.3
2022-08-02T02:58:28.812Z,15.1
2022-08-02T03:04:10.959Z,15
2022-08-02T03:10:00.000Z,14.9
2022-08-02T03:15:40.379Z,14.8
2022-08-02T03:21:20.510Z,14.7
2022-08-02T03:27:00.972Z,14.7
2022-08-02T03:32:41.252Z,14.6
2022-08-02T03:38:21.594Z,14.5
2022-08-02T03:44:08.886Z,14.4
2022-08-02T03:49:49.089Z,14.4
2022-08-02T03:55:29.208Z,14.4
2022-08-02T04:01:09.809Z,14.4
2022-08-02T04:06:51.176Z,14.4
2022-08-02T04:12:32.878Z,14.4
2022-08-02T04:18:13.007Z,14.4
2022-08-02T04:23:53.246Z,14.5
2022-08-02T04:29:33.512Z,14.8
2022-08-02T04:35:21.422Z,15.4
2022-08-02T04:41:02.465Z,16.1
2022-08-02T04:46:43.158Z,16.8
2022-08-02T04:52:23.872Z,17.7
2022-08-02T04:58:18.516Z,18.5
2022-08-02T05:04:22.320Z,19.4
2022-08-02T05:10:03.627Z,20.3
2022-08-02T05:21:25.014Z,21.2
2022-08-02T05:27:16.958Z,21
2022-08-02T05:33:03.117Z,21
2022-08-02T05:38:46.403Z,20.6
2022-08-02T05:44:30.263Z,20.7
2022-08-02T05:50:10.490Z,20.7
2022-08-02T05:55:50.803Z,21
2022-08-02T06:01:31.350Z,22
2022-08-02T06:07:14.688Z,24.3
2022-08-02T06:12:55.711Z,25.6
2022-08-02T06:18:36.574Z,26.7
2022-08-02T06:24:16.840Z,27.3
2022-08-02T06:29:56.931Z,27.9
2022-08-02T06:35:37.566Z,29
2022-08-02T06:41:18.188Z,29.6
2022-08-02T06:47:10.578Z,29.6
2022-08-02T06:52:54.824Z,30.7
2022-08-02T06:58:35.006Z,31.3
2022-08-02T07:04:18.613Z,30.9
2022-08-02T07:10:01.583Z,29.8
2022-08-02T07:15:45.799Z,30.2
2022-08-02T07:21:45.838Z,31
2022-08-02T07:27:43.001Z,31.5
2022-08-02T07:33:37.239Z,31.4
2022-08-02T07:39:27.420Z,32.2
2022-08-02T07:45:16.135Z,32.6
2022-08-02T07:50:55.992Z,31.8
2022-08-02T08:01:39.193Z,31.5
2022-08-02T08:07:27.101Z,30.7
2022-08-02T08:13:07.610Z,31.2
2022-08-02T08:18:49.406Z,30.9
2022-08-02T08:24:29.766Z,30.6
2022-08-02T08:30:09.918Z,29.6
2022-08-02T08:35:50.504Z,30.8
2022-08-02T08:41:31.297Z,31.4
2022-08-02T08:47:11.681Z,31.5
2022-08-02T08:52:52.208Z,31.8
2022-08-02T08:58:32.404Z,31.7
2022-08-02T09:04:15.180Z,30.6
2022-08-02T09:09:55.203Z,29.5
2022-08-02T09:15:36.021Z,30.3
2022-08-02T09:21:16.705Z,28.9
2022-08-02T09:26:59.280Z,30.2
2022-08-02T09:37:48.593Z,32.9
2022-08-02T09:43:28.428Z,31.1
2022-08-02T09:49:08.871Z,31.1
2022-08-02T09:54:51.156Z,30.4
2022-08-02T10:00:50.590Z,30.6
2022-08-02T10:06:34.315Z,30.1
2022-08-02T10:12:15.246Z,30.3
2022-08-02T10:17:56.949Z,30.4
2022-08-02T10:23:37.563Z,30.4
2022-08-02T10:29:17.808Z,30.1
2022-08-02T10:34:58.124Z,30
2022-08-02T10:41:07.476Z,31
2022-08-02T10:46:48.390Z,32.1
2022-08-02T10:52:29.194Z,32.4
2022-08-02T10:58:29.273Z,31.1
2022-08-02T11:04:38.696Z,32.6
2022-08-02T11:10:21.707Z,31.7
2022-08-02T11:16:03.679Z,32.2
2022-08-02T11:26:56.969Z,33.1
2022-08-02T11:32:43.454Z,31.9
2022-08-02T11:48:49.539Z,32.9
2022-08-02T12:00:37.354Z,30.1
2022-08-02T12:16:21.248Z,30.9
2022-08-02T12:22:01.829Z,31.7
2022-08-02T12:27:42.735Z,32
2022-08-02T12:33:39.483Z,32.6
2022-08-02T12:39:22.853Z,32.8
2022-08-02T12:45:03.374Z,32.8
2022-08-02T12:50:43.590Z,32.5
2022-08-02T12:56:35.776Z,31.9
2022-08-02T13:02:16.075Z,31.6
2022-08-02T13:08:10.049Z,34
2022-08-02T13:13:50.499Z,34.1
2022-08-02T13:19:38.755Z,34.7
2022-08-02T13:25:19.466Z,35.5
2022-08-02T14:27:28.833Z,33.3
2022-08-02T14:33:09.068Z,33.4
2022-08-02T14:38:49.189Z,32.8
2022-08-02T14:44:38.488Z,34.4
2022-08-02T14:50:18.977Z,35
2022-08-02T14:55:59.076Z,34
2022-08-02T15:01:51.996Z,34.3
2022-08-02T15:58:22.415Z,33.3
2022-08-02T16:04:03.722Z,31.4
2022-08-02T16:09:43.601Z,30.9
2022-08-02T16:15:23.652Z,30.4
2022-08-02T16:21:03.948Z,29.9
2022-08-02T16:26:44.327Z,29.9
2022-08-02T16:32:24.534Z,29.9
2022-08-02T16:38:04.569Z,29.7
2022-08-02T16:43:44.884Z,29.5
2022-08-02T16:49:56.763Z,29.5
2022-08-02T16:56:07.849Z,29.6
2022-08-02T17:30:43.377Z,29.8
2022-08-02T17:36:25.265Z,29.3
2022-08-02T17:42:05.640Z,29.1
2022-08-02T17:48:03.717Z,28.8
2022-08-02T17:53:55.821Z,28.7
2022-08-02T17:59:42.389Z,28.6
2022-08-02T18:05:53.226Z,28.5
2022-08-02T18:11:51.676Z,28.4
2022-08-02T18:17:37.104Z,28.3
2022-08-02T18:23:22.319Z,28
2022-08-02T18:29:03.802Z,27.8
2022-08-02T18:34:47.581Z,27.6
2022-08-02T18:46:15.269Z,27.4
2022-08-02T18:52:02.004Z,27.2
2022-08-02T18:57:59.798Z,26.9
2022-08-02T19:04:01.226Z,26.7
2022-08-02T19:09:43.112Z,26.2
2022-08-02T19:15:26.446Z,25.8
2022-08-02T19:21:07.281Z,25.5
2022-08-02T22:46:49.823Z,23.4
2022-08-02T22:52:30.629Z,22.7
2022-08-02T22:58:11.483Z,22.3
2022-08-02T22:58:42.380Z,29.5
2022-08-02T23:03:53.528Z,22.1
2022-08-02T23:09:33.452Z,22
2022-08-02T23:15:13.539Z,22
2022-08-02T23:20:53.611Z,21.9
2022-08-02T23:26:33.688Z,21.9
2022-08-02T23:32:14.480Z,21.8
2022-08-02T23:38:00.531Z,21.8
2022-08-02T23:43:57.479Z,21.7
2022-08-02T23:49:56.067Z,21.8
2022-08-02T23:55:36.491Z,21.7
